sensor_id;sensor_type;location;lat;lon;timestamp;P1;durP1;ratioP1;P2;durP2;ratioP2
60336;SDS011;46978;50.288;28.624;2023-08-01T00:00:58;5.71;;;4.37;;
60336;SDS011;46978;50.288;28.624;2023-08-01T00:02:00;7.07;;;4.18;;
60336;SDS011;46978;50.288;28.624;2023-08-01T00:03:02;7.67;;;3.95;;
60336;SDS011;46978;50.288;28.624;2023-08-01T00:04:04;5.59;;;3.85;;
60336;SDS011;46978;50.288;28.624;2023-08-01T00:05:06;6.24;;;3.91;;
60336;SDS011;46978;50.288;28.624;2023-08-01T00:06:08;5.67;;;3.68;;
60336;SDS011;46978;50.288;28.624;2023-08-01T00:07:10;7.99;;;3.94;;
60336;SDS011;46978;50.288;28.624;2023-08-01T00:08:11;5.81;;;3.89;;
60336;SDS011;46978;50.288;28.624;2023-08-01T00:09:13;6.08;;;3.51;;
60336;SDS011;46978;50.288;28.624;2023-08-01T00:10:15;6.09;;;4.33;;
60336;SDS011;46978;50.288;28.624;2023-08-01T00:11:17;5.85;;;4.01;;
60336;SDS011;46978;50.288;28.624;2023-08-01T00:12:19;6.15;;;3.91;;
60336;SDS011;46978;50.288;28.624;2023-08-01T00:13:21;6.51;;;4.15;;
60336;SDS011;46978;50.288;28.624;2023-08-01T00:14:22;5.47;;;4.01;;
60336;SDS011;46978;50.288;28.624;2023-08-01T00:15:24;6.57;;;4.24;;
60336;SDS011;46978;50.288;28.624;2023-08-01T00:16:26;7.63;;;4.03;;
60336;SDS011;46978;50.288;28.624;2023-08-01T00:17:28;5.66;;;3.76;;
60336;SDS011;46978;50.288;28.624;2023-08-01T00:18:29;6.07;;;3.91;;
60336;SDS011;46978;50.288;28.624;2023-08-01T00:19:31;6.01;;;3.84;;
60336;SDS011;46978;50.288;28.624;2023-08-01T00:20:33;6.94;;;4.26;;
60336;SDS011;46978;50.288;28.624;2023-08-01T00:21:34;6.76;;;3.86;;
60336;SDS011;46978;50.288;28.624;2023-08-01T00:22:36;7.25;;;3.88;;
60336;SDS011;46978;50.288;28.624;2023-08-01T00:23:38;7.17;;;4.21;;
60336;SDS011;46978;50.288;28.624;2023-08-01T00:24:40;6.44;;;4.13;;
60336;SDS011;46978;50.288;28.624;2023-08-01T00:25:41;6.06;;;4.33;;
60336;SDS011;46978;50.288;28.624;2023-08-01T00:26:43;7.94;;;4.38;;
60336;SDS011;46978;50.288;28.624;2023-08-01T00:27:45;6.95;;;4.16;;
60336;SDS011;46978;50.288;28.624;2023-08-01T00:28:46;7.20;;;4.31;;
60336;SDS011;46978;50.288;28.624;2023-08-01T00:29:48;5.84;;;3.79;;
60336;SDS011;46978;50.288;28.624;2023-08-01T00:30:50;6.73;;;4.35;;
60336;SDS011;46978;50.288;28.624;2023-08-01T00:31:52;7.49;;;4.02;;
60336;SDS011;46978;50.288;28.624;2023-08-01T00:32:53;5.62;;;3.90;;
60336;SDS011;46978;50.288;28.624;2023-08-01T00:33:55;7.91;;;4.04;;
60336;SDS011;46978;50.288;28.624;2023-08-01T00:34:57;5.95;;;4.39;;
60336;SDS011;46978;50.288;28.624;2023-08-01T00:35:58;6.76;;;3.92;;
60336;SDS011;46978;50.288;28.624;2023-08-01T00:37:01;6.27;;;3.91;;
60336;SDS011;46978;50.288;28.624;2023-08-01T00:38:03;5.87;;;4.07;;
60336;SDS011;46978;50.288;28.624;2023-08-01T00:39:04;6.16;;;4.09;;
60336;SDS011;46978;50.288;28.624;2023-08-01T00:40:07;6.38;;;4.27;;
60336;SDS011;46978;50.288;28.624;2023-08-01T00:41:09;6.89;;;4.22;;
60336;SDS011;46978;50.288;28.624;2023-08-01T00:42:11;5.93;;;4.25;;
60336;SDS011;46978;50.288;28.624;2023-08-01T00:43:14;6.63;;;4.21;;
60336;SDS011;46978;50.288;28.624;2023-08-01T00:44:15;6.38;;;4.21;;
60336;SDS011;46978;50.288;28.624;2023-08-01T00:45:17;5.30;;;4.06;;
60336;SDS011;46978;50.288;28.624;2023-08-01T00:46:19;6.15;;;4.22;;
60336;SDS011;46978;50.288;28.624;2023-08-01T00:47:21;6.46;;;4.14;;
60336;SDS011;46978;50.288;28.624;2023-08-01T00:48:22;5.95;;;4.21;;
60336;SDS011;46978;50.288;28.624;2023-08-01T00:49:24;7.86;;;4.47;;
60336;SDS011;46978;50.288;28.624;2023-08-01T00:50:26;6.15;;;4.25;;
60336;SDS011;46978;50.288;28.624;2023-08-01T00:51:28;6.18;;;4.11;;
60336;SDS011;46978;50.288;28.624;2023-08-01T00:52:32;7.14;;;4.24;;
60336;SDS011;46978;50.288;28.624;2023-08-01T00:53:34;6.48;;;4.21;;
60336;SDS011;46978;50.288;28.624;2023-08-01T00:54:36;6.32;;;4.35;;
60336;SDS011;46978;50.288;28.624;2023-08-01T00:55:39;7.68;;;4.30;;
60336;SDS011;46978;50.288;28.624;2023-08-01T00:56:41;6.74;;;4.26;;
60336;SDS011;46978;50.288;28.624;2023-08-01T00:57:44;7.23;;;4.43;;
60336;SDS011;46978;50.288;28.624;2023-08-01T00:58:46;7.60;;;4.71;;
60336;SDS011;46978;50.288;28.624;2023-08-01T00:59:47;7.75;;;4.44;;
60336;SDS011;46978;50.288;28.624;2023-08-01T01:00:49;6.37;;;4.15;;
60336;SDS011;46978;50.288;28.624;2023-08-01T01:01:51;6.53;;;3.92;;
60336;SDS011;46978;50.288;28.624;2023-08-01T01:02:53;5.44;;;4.25;;
60336;SDS011;46978;50.288;28.624;2023-08-01T01:03:55;6.78;;;3.94;;
60336;SDS011;46978;50.288;28.624;2023-08-01T01:04:57;7.13;;;4.26;;
60336;SDS011;46978;50.288;28.624;2023-08-01T01:06:12;6.48;;;4.51;;
60336;SDS011;46978;50.288;28.624;2023-08-01T01:07:17;5.39;;;4.14;;
60336;SDS011;46978;50.288;28.624;2023-08-01T01:08:20;8.29;;;4.42;;
60336;SDS011;46978;50.288;28.624;2023-08-01T01:09:22;6.37;;;4.12;;
60336;SDS011;46978;50.288;28.624;2023-08-01T01:10:24;6.16;;;4.53;;
60336;SDS011;46978;50.288;28.624;2023-08-01T01:11:25;6.99;;;4.08;;
60336;SDS011;46978;50.288;28.624;2023-08-01T01:12:27;8.32;;;4.55;;
60336;SDS011;46978;50.288;28.624;2023-08-01T01:13:29;7.18;;;4.06;;
60336;SDS011;46978;50.288;28.624;2023-08-01T01:14:31;7.05;;;4.12;;
60336;SDS011;46978;50.288;28.624;2023-08-01T01:15:32;6.45;;;4.21;;
60336;SDS011;46978;50.288;28.624;2023-08-01T01:16:34;6.72;;;4.24;;
60336;SDS011;46978;50.288;28.624;2023-08-01T01:17:36;6.03;;;4.07;;
60336;SDS011;46978;50.288;28.624;2023-08-01T01:18:37;8.39;;;4.86;;
60336;SDS011;46978;50.288;28.624;2023-08-01T01:19:39;5.96;;;4.19;;
60336;SDS011;46978;50.288;28.624;2023-08-01T01:20:41;8.75;;;5.11;;
60336;SDS011;46978;50.288;28.624;2023-08-01T01:21:43;6.76;;;4.61;;
60336;SDS011;46978;50.288;28.624;2023-08-01T01:22:46;6.22;;;4.42;;
60336;SDS011;46978;50.288;28.624;2023-08-01T01:23:48;6.31;;;4.11;;
60336;SDS011;46978;50.288;28.624;2023-08-01T01:24:52;5.87;;;3.71;;
60336;SDS011;46978;50.288;28.624;2023-08-01T01:25:56;6.18;;;4.13;;
60336;SDS011;46978;50.288;28.624;2023-08-01T01:26:59;9.22;;;4.32;;
60336;SDS011;46978;50.288;28.624;2023-08-01T01:28:03;6.08;;;4.23;;
60336;SDS011;46978;50.288;28.624;2023-08-01T01:29:06;6.46;;;4.26;;
60336;SDS011;46978;50.288;28.624;2023-08-01T01:30:08;6.44;;;4.33;;
60336;SDS011;46978;50.288;28.624;2023-08-01T01:31:11;5.55;;;4.09;;
60336;SDS011;46978;50.288;28.624;2023-08-01T01:32:13;8.24;;;4.21;;
60336;SDS011;46978;50.288;28.624;2023-08-01T01:33:15;7.77;;;4.21;;
60336;SDS011;46978;50.288;28.624;2023-08-01T01:34:17;6.23;;;4.13;;
60336;SDS011;46978;50.288;28.624;2023-08-01T01:35:19;6.09;;;4.37;;
60336;SDS011;46978;50.288;28.624;2023-08-01T01:36:21;6.23;;;4.32;;
60336;SDS011;46978;50.288;28.624;2023-08-01T01:37:23;6.90;;;4.00;;
60336;SDS011;46978;50.288;28.624;2023-08-01T01:38:24;7.38;;;3.99;;
60336;SDS011;46978;50.288;28.624;2023-08-01T01:39:26;5.46;;;3.82;;
60336;SDS011;46978;50.288;28.624;2023-08-01T01:40:28;6.17;;;4.09;;
60336;SDS011;46978;50.288;28.624;2023-08-01T01:41:32;9.11;;;4.97;;
60336;SDS011;46978;50.288;28.624;2023-08-01T01:42:34;5.29;;;4.01;;
60336;SDS011;46978;50.288;28.624;2023-08-01T01:43:35;8.51;;;4.69;;
60336;SDS011;46978;50.288;28.624;2023-08-01T01:44:37;6.99;;;4.71;;
60336;SDS011;46978;50.288;28.624;2023-08-01T01:45:39;7.21;;;4.53;;
60336;SDS011;46978;50.288;28.624;2023-08-01T01:46:40;5.68;;;3.83;;
60336;SDS011;46978;50.288;28.624;2023-08-01T01:47:42;6.42;;;4.07;;
60336;SDS011;46978;50.288;28.624;2023-08-01T01:48:44;7.19;;;4.13;;
60336;SDS011;46978;50.288;28.624;2023-08-01T01:49:46;7.79;;;4.01;;
60336;SDS011;46978;50.288;28.624;2023-08-01T01:50:47;6.40;;;4.00;;
60336;SDS011;46978;50.288;28.624;2023-08-01T01:51:49;5.96;;;4.10;;
60336;SDS011;46978;50.288;28.624;2023-08-01T01:52:51;6.10;;;3.98;;
60336;SDS011;46978;50.288;28.624;2023-08-01T01:53:52;6.45;;;4.36;;
60336;SDS011;46978;50.288;28.624;2023-08-01T01:54:54;8.94;;;3.92;;
60336;SDS011;46978;50.288;28.624;2023-08-01T01:55:56;7.40;;;4.47;;
60336;SDS011;46978;50.288;28.624;2023-08-01T01:56:57;6.29;;;4.13;;
60336;SDS011;46978;50.288;28.624;2023-08-01T01:57:59;7.14;;;4.01;;
60336;SDS011;46978;50.288;28.624;2023-08-01T01:59:01;7.59;;;4.11;;
60336;SDS011;46978;50.288;28.624;2023-08-01T02:00:04;6.90;;;4.01;;
60336;SDS011;46978;50.288;28.624;2023-08-01T02:01:06;5.94;;;4.19;;
60336;SDS011;46978;50.288;28.624;2023-08-01T02:02:07;6.41;;;4.19;;
60336;SDS011;46978;50.288;28.624;2023-08-01T02:03:09;6.19;;;4.18;;
60336;SDS011;46978;50.288;28.624;2023-08-01T02:04:11;5.88;;;4.19;;
60336;SDS011;46978;50.288;28.624;2023-08-01T02:05:13;6.87;;;4.45;;
60336;SDS011;46978;50.288;28.624;2023-08-01T02:06:15;7.70;;;4.77;;
60336;SDS011;46978;50.288;28.624;2023-08-01T02:07:16;6.37;;;4.34;;
60336;SDS011;46978;50.288;28.624;2023-08-01T02:08:18;6.66;;;4.76;;
60336;SDS011;46978;50.288;28.624;2023-08-01T02:09:19;6.29;;;4.40;;
60336;SDS011;46978;50.288;28.624;2023-08-01T02:10:21;7.69;;;4.44;;
60336;SDS011;46978;50.288;28.624;2023-08-01T02:11:23;6.36;;;4.18;;
60336;SDS011;46978;50.288;28.624;2023-08-01T02:12:25;6.05;;;4.13;;
60336;SDS011;46978;50.288;28.624;2023-08-01T02:13:27;7.31;;;4.83;;
60336;SDS011;46978;50.288;28.624;2023-08-01T02:14:29;7.97;;;4.54;;
60336;SDS011;46978;50.288;28.624;2023-08-01T02:15:31;7.44;;;4.57;;
60336;SDS011;46978;50.288;28.624;2023-08-01T02:16:32;8.41;;;4.36;;
60336;SDS011;46978;50.288;28.624;2023-08-01T02:17:34;7.08;;;3.94;;
60336;SDS011;46978;50.288;28.624;2023-08-01T02:18:36;6.11;;;4.18;;
60336;SDS011;46978;50.288;28.624;2023-08-01T02:19:37;7.04;;;4.09;;
60336;SDS011;46978;50.288;28.624;2023-08-01T02:20:39;4.96;;;3.80;;
60336;SDS011;46978;50.288;28.624;2023-08-01T02:21:41;6.08;;;4.10;;
60336;SDS011;46978;50.288;28.624;2023-08-01T02:22:42;6.46;;;3.93;;
60336;SDS011;46978;50.288;28.624;2023-08-01T02:23:44;7.15;;;4.56;;
60336;SDS011;46978;50.288;28.624;2023-08-01T02:24:46;9.14;;;4.67;;
60336;SDS011;46978;50.288;28.624;2023-08-01T02:25:47;7.49;;;4.78;;
60336;SDS011;46978;50.288;28.624;2023-08-01T02:26:49;5.76;;;4.48;;
60336;SDS011;46978;50.288;28.624;2023-08-01T02:27:52;9.03;;;4.57;;
60336;SDS011;46978;50.288;28.624;2023-08-01T02:28:53;6.08;;;4.69;;
60336;SDS011;46978;50.288;28.624;2023-08-01T02:29:55;6.39;;;4.68;;
60336;SDS011;46978;50.288;28.624;2023-08-01T02:30:57;6.37;;;4.41;;
60336;SDS011;46978;50.288;28.624;2023-08-01T02:31:58;6.79;;;4.72;;
60336;SDS011;46978;50.288;28.624;2023-08-01T02:33:00;6.56;;;4.36;;
60336;SDS011;46978;50.288;28.624;2023-08-01T02:34:01;8.23;;;4.37;;
60336;SDS011;46978;50.288;28.624;2023-08-01T02:35:04;6.01;;;4.43;;
60336;SDS011;46978;50.288;28.624;2023-08-01T02:36:06;7.79;;;3.96;;
60336;SDS011;46978;50.288;28.624;2023-08-01T02:37:08;6.07;;;4.20;;
60336;SDS011;46978;50.288;28.624;2023-08-01T02:38:09;6.26;;;3.96;;
60336;SDS011;46978;50.288;28.624;2023-08-01T02:39:11;6.14;;;4.46;;
60336;SDS011;46978;50.288;28.624;2023-08-01T02:40:13;5.96;;;4.25;;
60336;SDS011;46978;50.288;28.624;2023-08-01T02:41:15;7.07;;;4.29;;
60336;SDS011;46978;50.288;28.624;2023-08-01T02:42:17;7.55;;;4.60;;
60336;SDS011;46978;50.288;28.624;2023-08-01T02:43:18;9.10;;;4.44;;
60336;SDS011;46978;50.288;28.624;2023-08-01T02:44:20;7.24;;;4.26;;
60336;SDS011;46978;50.288;28.624;2023-08-01T02:45:22;6.61;;;4.27;;
60336;SDS011;46978;50.288;28.624;2023-08-01T02:46:23;7.88;;;4.16;;
60336;SDS011;46978;50.288;28.624;2023-08-01T02:47:25;6.07;;;3.94;;
60336;SDS011;46978;50.288;28.624;2023-08-01T02:48:26;6.69;;;3.86;;
60336;SDS011;46978;50.288;28.624;2023-08-01T02:49:28;7.10;;;4.39;;
60336;SDS011;46978;50.288;28.624;2023-08-01T02:50:30;6.05;;;4.19;;
60336;SDS011;46978;50.288;28.624;2023-08-01T02:51:32;7.39;;;4.51;;
60336;SDS011;46978;50.288;28.624;2023-08-01T02:52:33;6.48;;;4.54;;
60336;SDS011;46978;50.288;28.624;2023-08-01T02:53:35;8.18;;;4.59;;
60336;SDS011;46978;50.288;28.624;2023-08-01T02:54:37;5.13;;;3.97;;
60336;SDS011;46978;50.288;28.624;2023-08-01T02:55:39;5.99;;;4.19;;
60336;SDS011;46978;50.288;28.624;2023-08-01T02:56:41;6.66;;;4.41;;
60336;SDS011;46978;50.288;28.624;2023-08-01T02:57:43;6.37;;;4.07;;
60336;SDS011;46978;50.288;28.624;2023-08-01T02:58:45;7.03;;;4.40;;
60336;SDS011;46978;50.288;28.624;2023-08-01T02:59:46;6.31;;;4.18;;
60336;SDS011;46978;50.288;28.624;2023-08-01T03:00:48;6.59;;;4.08;;
60336;SDS011;46978;50.288;28.624;2023-08-01T03:01:50;6.23;;;4.38;;
60336;SDS011;46978;50.288;28.624;2023-08-01T03:02:51;6.80;;;4.06;;
60336;SDS011;46978;50.288;28.624;2023-08-01T03:03:53;6.53;;;4.33;;
60336;SDS011;46978;50.288;28.624;2023-08-01T03:04:54;6.11;;;4.29;;
60336;SDS011;46978;50.288;28.624;2023-08-01T03:05:56;6.56;;;4.26;;
60336;SDS011;46978;50.288;28.624;2023-08-01T03:06:58;6.39;;;4.55;;
60336;SDS011;46978;50.288;28.624;2023-08-01T03:07:59;7.29;;;4.84;;
60336;SDS011;46978;50.288;28.624;2023-08-01T03:09:01;5.75;;;4.45;;
60336;SDS011;46978;50.288;28.624;2023-08-01T03:10:03;6.85;;;4.19;;
60336;SDS011;46978;50.288;28.624;2023-08-01T03:11:05;7.91;;;4.56;;
60336;SDS011;46978;50.288;28.624;2023-08-01T03:12:07;5.72;;;3.98;;
60336;SDS011;46978;50.288;28.624;2023-08-01T03:13:09;6.25;;;4.41;;
60336;SDS011;46978;50.288;28.624;2023-08-01T03:14:10;5.62;;;4.11;;
60336;SDS011;46978;50.288;28.624;2023-08-01T03:15:12;6.24;;;4.56;;
60336;SDS011;46978;50.288;28.624;2023-08-01T03:16:14;6.70;;;4.24;;
60336;SDS011;46978;50.288;28.624;2023-08-01T03:17:15;7.04;;;4.02;;
60336;SDS011;46978;50.288;28.624;2023-08-01T03:18:17;7.16;;;4.31;;
60336;SDS011;46978;50.288;28.624;2023-08-01T03:19:19;6.41;;;4.67;;
60336;SDS011;46978;50.288;28.624;2023-08-01T03:20:21;5.67;;;4.24;;
60336;SDS011;46978;50.288;28.624;2023-08-01T03:21:22;6.23;;;4.43;;
60336;SDS011;46978;50.288;28.624;2023-08-01T03:22:24;5.49;;;3.87;;
60336;SDS011;46978;50.288;28.624;2023-08-01T03:23:26;6.30;;;3.80;;
60336;SDS011;46978;50.288;28.624;2023-08-01T03:24:28;6.47;;;3.70;;
60336;SDS011;46978;50.288;28.624;2023-08-01T03:25:30;6.02;;;3.88;;
60336;SDS011;46978;50.288;28.624;2023-08-01T03:26:31;8.35;;;4.17;;
60336;SDS011;46978;50.288;28.624;2023-08-01T03:27:33;5.84;;;3.68;;
60336;SDS011;46978;50.288;28.624;2023-08-01T03:28:35;6.21;;;3.91;;
60336;SDS011;46978;50.288;28.624;2023-08-01T03:29:37;6.49;;;4.11;;
60336;SDS011;46978;50.288;28.624;2023-08-01T03:30:39;5.93;;;4.10;;
60336;SDS011;46978;50.288;28.624;2023-08-01T03:31:41;6.33;;;3.97;;
60336;SDS011;46978;50.288;28.624;2023-08-01T03:32:42;6.01;;;3.82;;
60336;SDS011;46978;50.288;28.624;2023-08-01T03:33:44;5.95;;;4.01;;
60336;SDS011;46978;50.288;28.624;2023-08-01T03:34:46;5.76;;;3.90;;
60336;SDS011;46978;50.288;28.624;2023-08-01T03:35:48;6.01;;;3.73;;
60336;SDS011;46978;50.288;28.624;2023-08-01T03:36:50;7.33;;;4.09;;
60336;SDS011;46978;50.288;28.624;2023-08-01T03:37:51;4.72;;;3.61;;
60336;SDS011;46978;50.288;28.624;2023-08-01T03:38:53;5.77;;;3.74;;
60336;SDS011;46978;50.288;28.624;2023-08-01T03:39:54;5.99;;;3.69;;
60336;SDS011;46978;50.288;28.624;2023-08-01T03:40:56;4.92;;;3.86;;
60336;SDS011;46978;50.288;28.624;2023-08-01T03:41:58;6.01;;;3.73;;
60336;SDS011;46978;50.288;28.624;2023-08-01T03:43:00;6.61;;;3.71;;
60336;SDS011;46978;50.288;28.624;2023-08-01T03:44:02;5.36;;;3.45;;
60336;SDS011;46978;50.288;28.624;2023-08-01T03:45:04;5.41;;;3.61;;
60336;SDS011;46978;50.288;28.624;2023-08-01T03:46:07;5.94;;;3.60;;
60336;SDS011;46978;50.288;28.624;2023-08-01T03:47:09;5.54;;;3.53;;
60336;SDS011;46978;50.288;28.624;2023-08-01T03:48:10;5.70;;;3.59;;
60336;SDS011;46978;50.288;28.624;2023-08-01T03:49:12;5.25;;;3.71;;
60336;SDS011;46978;50.288;28.624;2023-08-01T03:50:14;6.32;;;3.51;;
60336;SDS011;46978;50.288;28.624;2023-08-01T03:51:16;5.49;;;3.61;;
60336;SDS011;46978;50.288;28.624;2023-08-01T03:52:18;6.08;;;3.39;;
60336;SDS011;46978;50.288;28.624;2023-08-01T03:53:20;7.09;;;3.73;;
60336;SDS011;46978;50.288;28.624;2023-08-01T03:54:21;7.67;;;3.87;;
60336;SDS011;46978;50.288;28.624;2023-08-01T03:55:23;6.09;;;3.91;;
60336;SDS011;46978;50.288;28.624;2023-08-01T03:56:25;6.02;;;3.59;;
60336;SDS011;46978;50.288;28.624;2023-08-01T03:57:27;6.34;;;3.80;;
60336;SDS011;46978;50.288;28.624;2023-08-01T03:58:28;7.49;;;3.54;;
60336;SDS011;46978;50.288;28.624;2023-08-01T03:59:30;5.94;;;3.25;;
60336;SDS011;46978;50.288;28.624;2023-08-01T04:00:32;6.86;;;3.64;;
60336;SDS011;46978;50.288;28.624;2023-08-01T04:01:34;6.51;;;3.55;;
60336;SDS011;46978;50.288;28.624;2023-08-01T04:02:35;5.41;;;3.22;;
60336;SDS011;46978;50.288;28.624;2023-08-01T04:03:37;5.94;;;3.33;;
60336;SDS011;46978;50.288;28.624;2023-08-01T04:04:39;5.27;;;3.40;;
60336;SDS011;46978;50.288;28.624;2023-08-01T04:05:41;5.16;;;3.50;;
60336;SDS011;46978;50.288;28.624;2023-08-01T04:06:43;5.49;;;3.57;;
60336;SDS011;46978;50.288;28.624;2023-08-01T04:07:44;6.16;;;3.35;;
60336;SDS011;46978;50.288;28.624;2023-08-01T04:08:46;6.79;;;3.56;;
60336;SDS011;46978;50.288;28.624;2023-08-01T04:09:47;7.86;;;3.34;;
60336;SDS011;46978;50.288;28.624;2023-08-01T04:10:50;5.53;;;3.54;;
60336;SDS011;46978;50.288;28.624;2023-08-01T04:11:51;6.19;;;3.92;;
60336;SDS011;46978;50.288;28.624;2023-08-01T04:12:53;7.04;;;3.47;;
60336;SDS011;46978;50.288;28.624;2023-08-01T04:13:55;6.33;;;3.66;;
60336;SDS011;46978;50.288;28.624;2023-08-01T04:14:57;6.05;;;3.51;;
60336;SDS011;46978;50.288;28.624;2023-08-01T04:15:59;7.79;;;3.35;;
60336;SDS011;46978;50.288;28.624;2023-08-01T04:17:01;7.17;;;3.51;;
60336;SDS011;46978;50.288;28.624;2023-08-01T04:18:03;5.40;;;3.34;;
60336;SDS011;46978;50.288;28.624;2023-08-01T04:19:04;4.70;;;3.44;;
60336;SDS011;46978;50.288;28.624;2023-08-01T04:20:07;8.20;;;3.56;;
60336;SDS011;46978;50.288;28.624;2023-08-01T04:21:09;5.29;;;3.38;;
60336;SDS011;46978;50.288;28.624;2023-08-01T04:22:13;6.31;;;3.63;;
60336;SDS011;46978;50.288;28.624;2023-08-01T04:23:15;5.05;;;3.60;;
60336;SDS011;46978;50.288;28.624;2023-08-01T04:24:16;5.42;;;3.62;;
60336;SDS011;46978;50.288;28.624;2023-08-01T04:25:18;6.23;;;3.81;;
60336;SDS011;46978;50.288;28.624;2023-08-01T04:26:20;5.06;;;3.49;;
60336;SDS011;46978;50.288;28.624;2023-08-01T04:27:21;5.71;;;3.61;;
60336;SDS011;46978;50.288;28.624;2023-08-01T04:28:23;4.75;;;3.46;;
60336;SDS011;46978;50.288;28.624;2023-08-01T04:29:25;5.94;;;3.67;;
60336;SDS011;46978;50.288;28.624;2023-08-01T04:30:27;6.59;;;3.60;;
60336;SDS011;46978;50.288;28.624;2023-08-01T04:31:29;6.52;;;3.52;;
60336;SDS011;46978;50.288;28.624;2023-08-01T04:32:30;6.61;;;3.76;;
60336;SDS011;46978;50.288;28.624;2023-08-01T04:33:32;5.89;;;3.59;;
60336;SDS011;46978;50.288;28.624;2023-08-01T04:34:34;6.01;;;3.69;;
60336;SDS011;46978;50.288;28.624;2023-08-01T04:35:35;7.94;;;3.84;;
60336;SDS011;46978;50.288;28.624;2023-08-01T04:36:37;5.66;;;3.73;;
60336;SDS011;46978;50.288;28.624;2023-08-01T04:37:39;6.05;;;3.91;;
60336;SDS011;46978;50.288;28.624;2023-08-01T04:38:40;6.16;;;3.52;;
60336;SDS011;46978;50.288;28.624;2023-08-01T04:39:42;6.83;;;4.13;;
60336;SDS011;46978;50.288;28.624;2023-08-01T04:40:44;6.15;;;3.53;;
60336;SDS011;46978;50.288;28.624;2023-08-01T04:41:46;5.87;;;3.67;;
60336;SDS011;46978;50.288;28.624;2023-08-01T04:42:48;6.45;;;4.31;;
60336;SDS011;46978;50.288;28.624;2023-08-01T04:43:49;6.43;;;4.33;;
60336;SDS011;46978;50.288;28.624;2023-08-01T04:44:51;6.71;;;4.06;;
60336;SDS011;46978;50.288;28.624;2023-08-01T04:45:52;5.39;;;3.54;;
60336;SDS011;46978;50.288;28.624;2023-08-01T04:46:54;6.75;;;3.84;;
60336;SDS011;46978;50.288;28.624;2023-08-01T04:47:56;7.38;;;3.96;;
60336;SDS011;46978;50.288;28.624;2023-08-01T04:48:58;5.14;;;3.84;;
60336;SDS011;46978;50.288;28.624;2023-08-01T04:49:59;5.91;;;3.84;;
60336;SDS011;46978;50.288;28.624;2023-08-01T04:51:01;6.49;;;3.86;;
60336;SDS011;46978;50.288;28.624;2023-08-01T04:52:03;7.74;;;4.05;;
60336;SDS011;46978;50.288;28.624;2023-08-01T04:53:05;7.42;;;3.65;;
60336;SDS011;46978;50.288;28.624;2023-08-01T04:54:07;6.88;;;4.36;;
60336;SDS011;46978;50.288;28.624;2023-08-01T04:55:09;5.04;;;3.91;;
60336;SDS011;46978;50.288;28.624;2023-08-01T04:56:11;7.04;;;4.25;;
60336;SDS011;46978;50.288;28.624;2023-08-01T04:57:12;6.50;;;4.08;;
60336;SDS011;46978;50.288;28.624;2023-08-01T04:58:14;6.61;;;3.71;;
60336;SDS011;46978;50.288;28.624;2023-08-01T04:59:16;6.49;;;3.84;;
60336;SDS011;46978;50.288;28.624;2023-08-01T05:00:17;7.69;;;3.80;;
60336;SDS011;46978;50.288;28.624;2023-08-01T05:01:19;7.04;;;4.11;;
60336;SDS011;46978;50.288;28.624;2023-08-01T05:02:21;5.69;;;4.16;;
60336;SDS011;46978;50.288;28.624;2023-08-01T05:03:23;7.85;;;4.47;;
60336;SDS011;46978;50.288;28.624;2023-08-01T05:04:24;8.64;;;4.59;;
60336;SDS011;46978;50.288;28.624;2023-08-01T05:05:26;6.98;;;4.59;;
60336;SDS011;46978;50.288;28.624;2023-08-01T05:06:28;5.89;;;4.17;;
60336;SDS011;46978;50.288;28.624;2023-08-01T05:07:30;7.20;;;4.04;;
60336;SDS011;46978;50.288;28.624;2023-08-01T05:08:33;7.63;;;4.36;;
60336;SDS011;46978;50.288;28.624;2023-08-01T05:09:35;7.49;;;4.55;;
60336;SDS011;46978;50.288;28.624;2023-08-01T05:10:36;6.15;;;4.19;;
60336;SDS011;46978;50.288;28.624;2023-08-01T05:11:38;7.71;;;4.60;;
60336;SDS011;46978;50.288;28.624;2023-08-01T05:12:40;6.80;;;4.49;;
60336;SDS011;46978;50.288;28.624;2023-08-01T05:13:41;7.63;;;4.51;;
60336;SDS011;46978;50.288;28.624;2023-08-01T05:14:43;8.19;;;4.67;;
60336;SDS011;46978;50.288;28.624;2023-08-01T05:15:45;5.79;;;4.23;;
60336;SDS011;46978;50.288;28.624;2023-08-01T05:16:47;5.78;;;4.17;;
60336;SDS011;46978;50.288;28.624;2023-08-01T05:17:49;7.50;;;4.45;;
60336;SDS011;46978;50.288;28.624;2023-08-01T05:18:51;7.72;;;4.57;;
60336;SDS011;46978;50.288;28.624;2023-08-01T05:19:52;8.80;;;4.66;;
60336;SDS011;46978;50.288;28.624;2023-08-01T05:20:54;8.10;;;4.20;;
60336;SDS011;46978;50.288;28.624;2023-08-01T05:21:56;7.02;;;4.79;;
60336;SDS011;46978;50.288;28.624;2023-08-01T05:22:58;8.20;;;4.61;;
60336;SDS011;46978;50.288;28.624;2023-08-01T05:24:00;7.77;;;4.55;;
60336;SDS011;46978;50.288;28.624;2023-08-01T05:25:02;7.41;;;4.12;;
60336;SDS011;46978;50.288;28.624;2023-08-01T05:26:04;7.25;;;4.64;;
60336;SDS011;46978;50.288;28.624;2023-08-01T05:27:06;7.79;;;4.59;;
60336;SDS011;46978;50.288;28.624;2023-08-01T05:28:07;7.72;;;4.67;;
60336;SDS011;46978;50.288;28.624;2023-08-01T05:29:09;9.94;;;4.78;;
60336;SDS011;46978;50.288;28.624;2023-08-01T05:30:11;8.19;;;5.00;;
60336;SDS011;46978;50.288;28.624;2023-08-01T05:31:13;8.39;;;5.09;;
60336;SDS011;46978;50.288;28.624;2023-08-01T05:32:15;10.80;;;5.16;;
60336;SDS011;46978;50.288;28.624;2023-08-01T05:33:16;8.33;;;4.88;;
60336;SDS011;46978;50.288;28.624;2023-08-01T05:34:18;10.63;;;5.20;;
60336;SDS011;46978;50.288;28.624;2023-08-01T05:35:20;10.83;;;5.36;;
60336;SDS011;46978;50.288;28.624;2023-08-01T05:36:22;13.86;;;5.57;;
60336;SDS011;46978;50.288;28.624;2023-08-01T05:37:23;10.65;;;5.57;;
60336;SDS011;46978;50.288;28.624;2023-08-01T05:38:25;9.56;;;5.14;;
60336;SDS011;46978;50.288;28.624;2023-08-01T05:39:27;10.44;;;6.30;;
60336;SDS011;46978;50.288;28.624;2023-08-01T05:40:29;11.91;;;5.74;;
60336;SDS011;46978;50.288;28.624;2023-08-01T05:41:31;12.66;;;5.79;;
60336;SDS011;46978;50.288;28.624;2023-08-01T05:42:32;8.55;;;5.91;;
60336;SDS011;46978;50.288;28.624;2023-08-01T05:43:35;10.31;;;5.79;;
60336;SDS011;46978;50.288;28.624;2023-08-01T05:44:36;10.58;;;6.21;;
60336;SDS011;46978;50.288;28.624;2023-08-01T05:45:38;9.12;;;5.62;;
60336;SDS011;46978;50.288;28.624;2023-08-01T05:46:40;10.90;;;6.11;;
60336;SDS011;46978;50.288;28.624;2023-08-01T05:47:42;10.03;;;5.56;;
60336;SDS011;46978;50.288;28.624;2023-08-01T05:48:43;8.89;;;5.71;;
60336;SDS011;46978;50.288;28.624;2023-08-01T05:49:45;10.01;;;5.33;;
60336;SDS011;46978;50.288;28.624;2023-08-01T05:50:47;11.90;;;5.99;;
60336;SDS011;46978;50.288;28.624;2023-08-01T05:51:48;8.55;;;4.86;;
60336;SDS011;46978;50.288;28.624;2023-08-01T05:52:50;9.41;;;5.20;;
60336;SDS011;46978;50.288;28.624;2023-08-01T05:53:52;9.39;;;5.09;;
60336;SDS011;46978;50.288;28.624;2023-08-01T05:54:53;8.76;;;5.49;;
60336;SDS011;46978;50.288;28.624;2023-08-01T05:55:55;9.61;;;5.86;;
60336;SDS011;46978;50.288;28.624;2023-08-01T05:56:57;9.70;;;5.51;;
60336;SDS011;46978;50.288;28.624;2023-08-01T05:57:59;7.36;;;5.27;;
60336;SDS011;46978;50.288;28.624;2023-08-01T05:59:01;7.47;;;4.86;;
60336;SDS011;46978;50.288;28.624;2023-08-01T06:00:03;8.35;;;4.64;;
60336;SDS011;46978;50.288;28.624;2023-08-01T06:01:05;8.21;;;5.36;;
60336;SDS011;46978;50.288;28.624;2023-08-01T06:02:07;8.56;;;5.10;;
60336;SDS011;46978;50.288;28.624;2023-08-01T06:03:09;10.20;;;5.24;;
60336;SDS011;46978;50.288;28.624;2023-08-01T06:04:10;8.13;;;4.83;;
60336;SDS011;46978;50.288;28.624;2023-08-01T06:05:12;6.66;;;5.00;;
60336;SDS011;46978;50.288;28.624;2023-08-01T06:06:14;10.21;;;5.15;;
60336;SDS011;46978;50.288;28.624;2023-08-01T06:07:16;7.69;;;5.34;;